sensor_id;sensor_type;location;lat;lon;timestamp;pressure;altitude;pressure_sealevel;temperature;humidity
42297;BME280;72430;47.456;19.016;2023-09-30T00:00:25;100867.34;;;12.36;93.05
42297;BME280;72430;47.456;19.016;2023-09-30T00:03:27;100880.50;;;12.29;92.77
42297;BME280;72430;47.456;19.016;2023-09-30T00:06:30;100875.09;;;12.19;92.77
42297;BME280;72430;47.456;19.016;2023-09-30T00:09:32;100876.91;;;12.19;94.15
42297;BME280;72430;47.456;19.016;2023-09-30T00:12:34;100876.47;;;12.45;92.81
42297;BME280;72430;47.456;19.016;2023-09-30T00:15:36;100868.53;;;12.63;91.15
42297;BME280;72430;47.456;19.016;2023-09-30T00:18:38;100871.50;;;12.50;93.41
42297;BME280;72430;47.456;19.016;2023-09-30T00:21:40;100866.38;;;12.57;93.57
42297;BME280;72430;47.456;19.016;2023-09-30T00:24:42;100870.50;;;12.51;91.33
42297;BME280;72430;47.456;19.016;2023-09-30T00:27:44;100868.09;;;12.17;92.66
42297;BME280;72430;47.456;19.016;2023-09-30T00:30:46;100863.28;;;12.20;92.24
42297;BME280;72430;47.456;19.016;2023-09-30T00:33:49;100861.03;;;12.26;90.96
42297;BME280;72430;47.456;19.016;2023-09-30T00:36:51;100861.72;;;12.18;91.59
42297;BME280;72430;47.456;19.016;2023-09-30T00:39:53;100853.78;;;11.95;92.56
42297;BME280;72430;47.456;19.016;2023-09-30T00:42:55;100853.09;;;12.03;92.75
42297;BME280;72430;47.456;19.016;2023-09-30T00:49:19;100848.16;;;11.77;93.84
42297;BME280;72430;47.456;19.016;2023-09-30T00:52:21;100849.41;;;11.73;94.47
42297;BME280;72430;47.456;19.016;2023-09-30T00:55:24;100846.47;;;12.07;92.56
42297;BME280;72430;47.456;19.016;2023-09-30T00:58:27;100844.22;;;12.12;93.20
42297;BME280;72430;47.456;19.016;2023-09-30T01:01:31;100843.94;;;12.15;91.94
42297;BME280;72430;47.456;19.016;2023-09-30T01:04:33;100841.28;;;11.94;92.79
42297;BME280;72430;47.456;19.016;2023-09-30T01:07:35;100847.41;;;11.75;92.84
42297;BME280;72430;47.456;19.016;2023-09-30T01:10:39;100844.41;;;11.68;94.03
42297;BME280;72430;47.456;19.016;2023-09-30T01:13:41;100844.78;;;11.63;96.07
42297;BME280;72430;47.456;19.016;2023-09-30T01:16:44;100835.75;;;11.64;95.13
42297;BME280;72430;47.456;19.016;2023-09-30T01:19:47;100840.81;;;11.58;94.68
42297;BME280;72430;47.456;19.016;2023-09-30T01:22:48;100844.34;;;11.58;96.04
42297;BME280;72430;47.456;19.016;2023-09-30T01:25:50;100841.13;;;11.64;95.88
42297;BME280;72430;47.456;19.016;2023-09-30T01:28:52;100846.00;;;11.71;96.40
42297;BME280;72430;47.456;19.016;2023-09-30T01:31:54;100839.41;;;11.63;95.20
42297;BME280;72430;47.456;19.016;2023-09-30T01:34:56;100843.84;;;11.64;95.96
42297;BME280;72430;47.456;19.016;2023-09-30T01:37:58;100844.34;;;11.58;95.02
42297;BME280;72430;47.456;19.016;2023-09-30T01:40:59;100840.34;;;11.52;97.08
42297;BME280;72430;47.456;19.016;2023-09-30T01:44:02;100837.53;;;11.54;96.63
42297;BME280;72430;47.456;19.016;2023-09-30T01:47:04;100844.78;;;11.63;98.07
42297;BME280;72430;47.456;19.016;2023-09-30T01:50:06;100846.72;;;11.73;97.67
42297;BME280;72430;47.456;19.016;2023-09-30T01:53:08;100841.19;;;11.74;96.83
42297;BME280;72430;47.456;19.016;2023-09-30T01:56:10;100839.78;;;11.80;95.80
42297;BME280;72430;47.456;19.016;2023-09-30T01:59:12;100836.09;;;11.81;94.41
42297;BME280;72430;47.456;19.016;2023-09-30T02:02:14;100833.03;;;11.64;95.94
42297;BME280;72430;47.456;19.016;2023-09-30T02:05:17;100844.41;;;11.68;94.91
42297;BME280;72430;47.456;19.016;2023-09-30T02:08:20;100841.06;;;11.54;95.77
42297;BME280;72430;47.456;19.016;2023-09-30T02:11:22;100831.00;;;11.57;97.61
42297;BME280;72430;47.456;19.016;2023-09-30T02:14:24;100829.31;;;11.55;97.74
42297;BME280;72430;47.456;19.016;2023-09-30T02:17:26;100840.41;;;11.41;97.88
42297;BME280;72430;47.456;19.016;2023-09-30T02:20:28;100836.06;;;11.50;98.42
42297;BME280;72430;47.456;19.016;2023-09-30T02:23:32;100835.72;;;11.43;96.52
42297;BME280;72430;47.456;19.016;2023-09-30T02:26:34;100836.13;;;11.38;98.30
42297;BME280;72430;47.456;19.016;2023-09-30T02:29:36;100825.41;;;11.48;97.51
42297;BME280;72430;47.456;19.016;2023-09-30T02:32:39;100824.81;;;11.45;98.37
42297;BME280;72430;47.456;19.016;2023-09-30T02:35:45;100824.94;;;11.43;99.22
42297;BME280;72430;47.456;19.016;2023-09-30T02:38:48;100826.53;;;11.46;98.88
42297;BME280;72430;47.456;19.016;2023-09-30T02:41:49;100820.59;;;11.52;99.02
42297;BME280;72430;47.456;19.016;2023-09-30T02:44:54;100823.50;;;11.60;99.20
42297;BME280;72430;47.456;19.016;2023-09-30T02:47:55;100824.41;;;11.71;97.96
42297;BME280;72430;47.456;19.016;2023-09-30T02:50:57;100825.84;;;11.75;96.81
42297;BME280;72430;47.456;19.016;2023-09-30T02:54:00;100825.91;;;11.63;96.18
42297;BME280;72430;47.456;19.016;2023-09-30T02:57:02;100829.66;;;11.72;96.28
42297;BME280;72430;47.456;19.016;2023-09-30T03:00:08;100825.28;;;11.50;95.79
42297;BME280;72430;47.456;19.016;2023-09-30T03:03:25;100827.88;;;11.30;96.78
42297;BME280;72430;47.456;19.016;2023-09-30T03:06:27;100831.41;;;11.31;97.01
42297;BME280;72430;47.456;19.016;2023-09-30T03:09:30;100820.28;;;11.45;96.34
42297;BME280;72430;47.456;19.016;2023-09-30T03:12:32;100825.81;;;11.22;97.28
42297;BME280;72430;47.456;19.016;2023-09-30T03:15:37;100834.88;;;11.21;96.42
42297;BME280;72430;47.456;19.016;2023-09-30T03:18:40;100828.38;;;11.24;95.76
42297;BME280;72430;47.456;19.016;2023-09-30T03:21:42;100833.25;;;11.30;97.52
42297;BME280;72430;47.456;19.016;2023-09-30T03:24:44;100838.31;;;11.23;97.27
42297;BME280;72430;47.456;19.016;2023-09-30T03:27:47;100840.81;;;11.15;97.53
42297;BME280;72430;47.456;19.016;2023-09-30T03:30:49;100833.81;;;10.91;98.39
42297;BME280;72430;47.456;19.016;2023-09-30T03:33:51;100844.91;;;10.98;99.05
42297;BME280;72430;47.456;19.016;2023-09-30T03:36:57;100839.22;;;11.12;97.75
42297;BME280;72430;47.456;19.016;2023-09-30T03:40:00;100839.63;;;11.29;96.52
42297;BME280;72430;47.456;19.016;2023-09-30T03:43:16;100840.00;;;11.46;95.18
42297;BME280;72430;47.456;19.016;2023-09-30T03:46:18;100843.22;;;11.39;93.92
42297;BME280;72430;47.456;19.016;2023-09-30T03:49:20;100838.94;;;11.37;93.19
42297;BME280;72430;47.456;19.016;2023-09-30T03:52:22;100834.38;;;11.49;93.17
42297;BME280;72430;47.456;19.016;2023-09-30T03:55:27;100839.34;;;11.32;93.67
42297;BME280;72430;47.456;19.016;2023-09-30T03:58:31;100843.91;;;11.32;93.35
42297;BME280;72430;47.456;19.016;2023-09-30T04:01:34;100838.22;;;11.13;93.19
42297;BME280;72430;47.456;19.016;2023-09-30T04:04:36;100833.56;;;10.83;95.96
42297;BME280;72430;47.456;19.016;2023-09-30T04:07:38;100841.44;;;10.74;96.12
42297;BME280;72430;47.456;19.016;2023-09-30T04:10:40;100847.22;;;10.70;96.19
42297;BME280;72430;47.456;19.016;2023-09-30T04:13:42;100840.09;;;10.69;98.48
42297;BME280;72430;47.456;19.016;2023-09-30T04:16:44;100840.22;;;10.79;97.53
42297;BME280;72430;47.456;19.016;2023-09-30T04:19:46;100848.50;;;10.87;99.57
42297;BME280;72430;47.456;19.016;2023-09-30T04:22:52;100842.03;;;10.78;99.38
42297;BME280;72430;47.456;19.016;2023-09-30T04:25:59;100840.03;;;10.92;97.65
42297;BME280;72430;47.456;19.016;2023-09-30T04:29:01;100844.94;;;10.86;98.09
42297;BME280;72430;47.456;19.016;2023-09-30T04:32:03;100846.97;;;11.06;94.21
42297;BME280;72430;47.456;19.016;2023-09-30T04:35:07;100849.53;;;11.07;97.14
42297;BME280;72430;47.456;19.016;2023-09-30T04:38:12;100854.13;;;11.17;94.03
42297;BME280;72430;47.456;19.016;2023-09-30T04:41:14;100855.09;;;10.94;96.62
42297;BME280;72430;47.456;19.016;2023-09-30T04:44:17;100859.19;;;11.10;94.78
42297;BME280;72430;47.456;19.016;2023-09-30T04:47:19;100861.28;;;11.06;96.25
42297;BME280;72430;47.456;19.016;2023-09-30T04:50:21;100860.22;;;11.30;96.86
42297;BME280;72430;47.456;19.016;2023-09-30T04:53:24;100861.44;;;11.47;94.26
42297;BME280;72430;47.456;19.016;2023-09-30T04:56:26;100862.38;;;11.58;93.71
42297;BME280;72430;47.456;19.016;2023-09-30T04:59:28;100857.97;;;11.57;94.17
42297;BME280;72430;47.456;19.016;2023-09-30T05:02:31;100865.31;;;11.33;94.88
42297;BME280;72430;47.456;19.016;2023-09-30T05:05:33;100856.44;;;11.21;95.67
42297;BME280;72430;47.456;19.016;2023-09-30T05:08:35;100869.47;;;11.16;97.47
42297;BME280;72430;47.456;19.016;2023-09-30T05:11:37;100869.94;;;11.21;95.59
42297;BME280;72430;47.456;19.016;2023-09-30T05:14:39;100872.03;;;11.18;97.87
42297;BME280;72430;47.456;19.016;2023-09-30T05:17:42;100874.69;;;11.29;98.08
42297;BME280;72430;47.456;19.016;2023-09-30T05:20:45;100879.59;;;11.45;98.32
42297;BME280;72430;47.456;19.016;2023-09-30T05:23:48;100876.56;;;11.60;97.83
42297;BME280;72430;47.456;19.016;2023-09-30T05:26:49;100872.56;;;11.75;97.37
42297;BME280;72430;47.456;19.016;2023-09-30T05:29:51;100873.47;;;11.86;96.89
42297;BME280;72430;47.456;19.016;2023-09-30T05:32:53;100883.28;;;12.08;96.59
42297;BME280;72430;47.456;19.016;2023-09-30T05:35:56;100882.22;;;12.30;96.85
42297;BME280;72430;47.456;19.016;2023-09-30T05:38:57;100885.56;;;12.54;94.98
42297;BME280;72430;47.456;19.016;2023-09-30T05:41:59;100878.63;;;12.71;93.74
42297;BME280;72430;47.456;19.016;2023-09-30T05:45:01;100879.81;;;12.98;93.00
42297;BME280;72430;47.456;19.016;2023-09-30T05:48:03;100887.94;;;13.18;93.63
42297;BME280;72430;47.456;19.016;2023-09-30T05:51:08;100878.09;;;13.76;90.95
42297;BME280;72430;47.456;19.016;2023-09-30T05:54:10;100876.88;;;13.98;89.16
42297;BME280;72430;47.456;19.016;2023-09-30T05:57:13;100881.22;;;14.19;88.81
42297;BME280;72430;47.456;19.016;2023-09-30T06:00:16;100876.91;;;14.26;88.89
42297;BME280;72430;47.456;19.016;2023-09-30T06:03:46;100883.75;;;14.30;90.09
42297;BME280;72430;47.456;19.016;2023-09-30T06:06:48;100881.06;;;14.48;88.40
42297;BME280;72430;47.456;19.016;2023-09-30T06:09:50;100883.81;;;14.76;87.81
42297;BME280;72430;47.456;19.016;2023-09-30T06:12:53;100884.59;;;15.23;86.93
42297;BME280;72430;47.456;19.016;2023-09-30T06:15:58;100893.56;;;15.24;86.14
42297;BME280;72430;47.456;19.016;2023-09-30T06:19:00;100894.59;;;15.41;85.54
42297;BME280;72430;47.456;19.016;2023-09-30T06:22:02;100889.13;;;15.86;85.62
42297;BME280;72430;47.456;19.016;2023-09-30T06:25:04;100884.09;;;16.17;83.19
42297;BME280;72430;47.456;19.016;2023-09-30T06:28:06;100876.16;;;16.67;81.66
42297;BME280;72430;47.456;19.016;2023-09-30T06:31:09;100881.97;;;16.89;80.80
42297;BME280;72430;47.456;19.016;2023-09-30T06:34:11;100876.94;;;17.11;78.86
42297;BME280;72430;47.456;19.016;2023-09-30T06:37:14;100881.72;;;17.34;78.52
42297;BME280;72430;47.456;19.016;2023-09-30T06:40:17;100884.94;;;17.70;74.74
42297;BME280;72430;47.456;19.016;2023-09-30T06:43:19;100888.50;;;17.63;75.81
42297;BME280;72430;47.456;19.016;2023-09-30T06:46:20;100890.38;;;17.45;76.09
42297;BME280;72430;47.456;19.016;2023-09-30T06:49:22;100888.16;;;17.57;76.08
42297;BME280;72430;47.456;19.016;2023-09-30T06:52:24;100900.03;;;17.90;73.48
42297;BME280;72430;47.456;19.016;2023-09-30T06:55:26;100897.66;;;17.78;74.75
42297;BME280;72430;47.456;19.016;2023-09-30T06:58:30;100900.09;;;17.56;73.75
42297;BME280;72430;47.456;19.016;2023-09-30T07:01:32;100898.03;;;17.75;75.54
42297;BME280;72430;47.456;19.016;2023-09-30T07:04:34;100901.38;;;17.94;76.56
42297;BME280;72430;47.456;19.016;2023-09-30T07:07:36;100901.06;;;17.89;76.96
42297;BME280;72430;47.456;19.016;2023-09-30T07:10:38;100898.03;;;18.48;77.64
42297;BME280;72430;47.456;19.016;2023-09-30T07:13:40;100898.69;;;18.50;78.85
42297;BME280;72430;47.456;19.016;2023-09-30T07:16:42;100894.09;;;18.43;77.91
42297;BME280;72430;47.456;19.016;2023-09-30T07:19:44;100903.50;;;18.40;73.68
42297;BME280;72430;47.456;19.016;2023-09-30T07:22:46;100903.84;;;18.37;73.29
42297;BME280;72430;47.456;19.016;2023-09-30T07:26:07;100897.38;;;18.38;70.82
42297;BME280;72430;47.456;19.016;2023-09-30T07:29:09;100903.78;;;18.54;72.95
42297;BME280;72430;47.456;19.016;2023-09-30T07:32:12;100910.28;;;18.52;71.66
42297;BME280;72430;47.456;19.016;2023-09-30T07:35:14;100914.81;;;18.60;69.28
42297;BME280;72430;47.456;19.016;2023-09-30T07:38:17;100914.88;;;18.84;67.40
42297;BME280;72430;47.456;19.016;2023-09-30T07:41:19;100913.03;;;19.39;68.29
42297;BME280;72430;47.456;19.016;2023-09-30T07:44:21;100919.81;;;19.82;68.10
42297;BME280;72430;47.456;19.016;2023-09-30T07:47:23;100911.78;;;20.19;65.99
42297;BME280;72430;47.456;19.016;2023-09-30T07:50:25;100916.28;;;20.57;65.26
42297;BME280;72430;47.456;19.016;2023-09-30T07:53:28;100914.53;;;20.71;62.99
42297;BME280;72430;47.456;19.016;2023-09-30T07:56:30;100909.78;;;20.58;64.60
42297;BME280;72430;47.456;19.016;2023-09-30T07:59:32;100917.94;;;20.73;62.24
42297;BME280;72430;47.456;19.016;2023-09-30T08:02:36;100907.66;;;20.90;62.88
42297;BME280;72430;47.456;19.016;2023-09-30T08:05:38;100915.88;;;21.55;62.17
42297;BME280;72430;47.456;19.016;2023-09-30T08:08:40;100914.31;;;21.24;61.15
42297;BME280;72430;47.456;19.016;2023-09-30T08:11:42;100920.50;;;21.77;60.18
42297;BME280;72430;47.456;19.016;2023-09-30T08:14:44;100923.63;;;21.95;56.10
42297;BME280;72430;47.456;19.016;2023-09-30T08:17:46;100917.72;;;21.98;58.05
42297;BME280;72430;47.456;19.016;2023-09-30T08:20:48;100917.38;;;21.80;58.25
42297;BME280;72430;47.456;19.016;2023-09-30T08:23:50;100924.03;;;21.49;54.52
42297;BME280;72430;47.456;19.016;2023-09-30T08:26:52;100918.34;;;21.06;55.36
42297;BME280;72430;47.456;19.016;2023-09-30T08:29:54;100912.22;;;21.26;54.38
42297;BME280;72430;47.456;19.016;2023-09-30T08:32:56;100907.97;;;21.67;53.92
42297;BME280;72430;47.456;19.016;2023-09-30T08:36:04;100911.28;;;21.63;52.98
42297;BME280;72430;47.456;19.016;2023-09-30T08:39:10;100907.63;;;21.99;52.40
42297;BME280;72430;47.456;19.016;2023-09-30T08:42:12;100901.03;;;21.93;52.38
42297;BME280;72430;47.456;19.016;2023-09-30T08:45:16;100899.16;;;22.36;50.73
42297;BME280;72430;47.456;19.016;2023-09-30T08:48:20;100892.03;;;23.04;51.46
42297;BME280;72430;47.456;19.016;2023-09-30T08:51:25;100883.22;;;23.69;48.79
42297;BME280;72430;47.456;19.016;2023-09-30T08:54:27;100890.31;;;24.31;46.78
42297;BME280;72430;47.456;19.016;2023-09-30T08:57:30;100871.78;;;23.86;48.47
42297;BME280;72430;47.456;19.016;2023-09-30T09:00:33;100882.53;;;24.28;47.61
42297;BME280;72430;47.456;19.016;2023-09-30T09:03:35;100892.66;;;24.27;46.61
42297;BME280;72430;47.456;19.016;2023-09-30T09:06:38;100882.97;;;24.18;47.21
42297;BME280;72430;47.456;19.016;2023-09-30T09:09:40;100877.91;;;23.95;46.96
42297;BME280;72430;47.456;19.016;2023-09-30T09:12:42;100882.16;;;23.84;48.57
42297;BME280;72430;47.456;19.016;2023-09-30T09:15:45;100880.69;;;23.54;49.04
42297;BME280;72430;47.456;19.016;2023-09-30T09:18:47;100885.97;;;23.69;51.03
42297;BME280;72430;47.456;19.016;2023-09-30T09:21:54;100889.16;;;23.46;49.47
42297;BME280;72430;47.456;19.016;2023-09-30T09:24:58;100890.88;;;23.40;49.05
42297;BME280;72430;47.456;19.016;2023-09-30T09:28:01;100891.94;;;22.70;51.02
42297;BME280;72430;47.456;19.016;2023-09-30T09:31:19;100891.59;;;22.45;51.39
42297;BME280;72430;47.456;19.016;2023-09-30T09:34:21;100886.50;;;22.35;51.17
42297;BME280;72430;47.456;19.016;2023-09-30T09:37:23;100887.72;;;21.90;52.63
42297;BME280;72430;47.456;19.016;2023-09-30T09:40:28;100887.75;;;22.32;52.52
42297;BME280;72430;47.456;19.016;2023-09-30T09:43:33;100882.75;;;22.07;52.61
42297;BME280;72430;47.456;19.016;2023-09-30T09:46:37;100882.25;;;21.90;52.94
42297;BME280;72430;47.456;19.016;2023-09-30T09:49:39;100885.13;;;22.17;53.35
42297;BME280;72430;47.456;19.016;2023-09-30T09:52:41;100885.00;;;21.90;53.94
42297;BME280;72430;47.456;19.016;2023-09-30T09:55:45;100891.06;;;22.21;52.86
42297;BME280;72430;47.456;19.016;2023-09-30T09:58:49;100880.06;;;22.14;52.25
42297;BME280;72430;47.456;19.016;2023-09-30T10:01:52;100881.88;;;22.42;52.27
42297;BME280;72430;47.456;19.016;2023-09-30T10:04:54;100880.78;;;22.30;53.00
42297;BME280;72430;47.456;19.016;2023-09-30T10:08:07;100872.91;;;22.55;52.46
42297;BME280;72430;47.456;19.016;2023-09-30T10:11:21;100875.38;;;22.50;50.58
42297;BME280;72430;47.456;19.016;2023-09-30T10:14:33;100871.72;;;22.91;52.78
42297;BME280;72430;47.456;19.016;2023-09-30T10:21:07;100868.69;;;23.55;48.74
42297;BME280;72430;47.456;19.016;2023-09-30T10:30:30;100855.31;;;23.18;49.43
42297;BME280;72430;47.456;19.016;2023-09-30T10:33:32;100853.19;;;22.93;50.61
42297;BME280;72430;47.456;19.016;2023-09-30T10:36:39;100862.25;;;22.87;51.52
42297;BME280;72430;47.456;19.016;2023-09-30T10:39:56;100856.78;;;23.01;51.36
42297;BME280;72430;47.456;19.016;2023-09-30T10:43:00;100856.56;;;23.02;51.36
42297;BME280;72430;47.456;19.016;2023-09-30T10:46:04;100853.19;;;23.20;51.75
42297;BME280;72430;47.456;19.016;2023-09-30T10:52:26;100850.97;;;22.62;52.78
42297;BME280;72430;47.456;19.016;2023-09-30T10:55:30;100855.03;;;22.24;53.46
42297;BME280;72430;47.456;19.016;2023-09-30T10:58:42;100848.28;;;22.33;54.31
42297;BME280;72430;47.456;19.016;2023-09-30T11:01:44;100850.59;;;22.23;53.95
42297;BME280;72430;47.456;19.016;2023-09-30T11:04:47;100842.13;;;22.18;54.44
42297;BME280;72430;47.456;19.016;2023-09-30T11:07:50;100850.69;;;22.01;54.57
42297;BME280;72430;47.456;19.016;2023-09-30T11:10:53;100846.41;;;21.63;54.93
42297;BME280;72430;47.456;19.016;2023-09-30T11:13:55;100849.84;;;21.72;54.60
42297;BME280;72430;47.456;19.016;2023-09-30T11:17:01;100861.25;;;21.47;56.17
42297;BME280;72430;47.456;19.016;2023-09-30T11:20:06;100857.78;;;21.60;55.24
42297;BME280;72430;47.456;19.016;2023-09-30T11:23:08;100853.53;;;21.57;57.39
42297;BME280;72430;47.456;19.016;2023-09-30T11:26:10;100861.59;;;21.37;57.44
42297;BME280;72430;47.456;19.016;2023-09-30T11:29:16;100858.28;;;20.98;59.32
42297;BME280;72430;47.456;19.016;2023-09-30T11:32:25;100856.09;;;20.93;60.27
42297;BME280;72430;47.456;19.016;2023-09-30T11:35:31;100862.31;;;21.02;59.73
42297;BME280;72430;47.456;19.016;2023-09-30T11:38:34;100854.72;;;20.83;59.96
42297;BME280;72430;47.456;19.016;2023-09-30T11:41:41;100862.31;;;21.02;60.28
42297;BME280;72430;47.456;19.016;2023-09-30T11:44:46;100868.16;;;21.21;60.03
42297;BME280;72430;47.456;19.016;2023-09-30T11:47:48;100864.44;;;21.29;59.18
42297;BME280;72430;47.456;19.016;2023-09-30T11:50:52;100862.75;;;21.50;63.40
42297;BME280;72430;47.456;19.016;2023-09-30T11:53:55;100867.06;;;21.66;61.58
42297;BME280;72430;47.456;19.016;2023-09-30T11:57:00;100863.22;;;21.31;60.08
42297;BME280;72430;47.456;19.016;2023-09-30T12:00:05;100855.31;;;21.00;62.96
42297;BME280;72430;47.456;19.016;2023-09-30T12:03:14;100872.13;;;21.40;61.97
42297;BME280;72430;47.456;19.016;2023-09-30T12:06:16;100862.81;;;21.13;62.70
42297;BME280;72430;47.456;19.016;2023-09-30T12:09:18;100857.88;;;21.23;63.33
42297;BME280;72430;47.456;19.016;2023-09-30T12:12:28;100858.66;;;21.67;63.17
42297;BME280;72430;47.456;19.016;2023-09-30T12:15:30;100853.03;;;21.47;66.56
42297;BME280;72430;47.456;19.016;2023-09-30T12:18:32;100853.19;;;20.95;67.87
42297;BME280;72430;47.456;19.016;2023-09-30T12:21:34;100857.22;;;20.62;66.88
42297;BME280;72430;47.456;19.016;2023-09-30T12:24:38;100860.56;;;20.79;66.75
42297;BME280;72430;47.456;19.016;2023-09-30T12:27:41;100857.84;;;20.43;69.31
42297;BME280;72430;47.456;19.016;2023-09-30T12:30:43;100858.03;;;20.41;68.32
42297;BME280;72430;47.456;19.016;2023-09-30T12:33:45;100865.56;;;20.09;70.47
42297;BME280;72430;47.456;19.016;2023-09-30T12:36:52;100852.41;;;20.12;69.80
42297;BME280;72430;47.456;19.016;2023-09-30T12:39:54;100864.34;;;20.26;70.96
42297;BME280;72430;47.456;19.016;2023-09-30T12:42:56;100866.59;;;19.93;71.61
42297;BME280;72430;47.456;19.016;2023-09-30T12:45:59;100860.78;;;20.11;71.34
42297;BME280;72430;47.456;19.016;2023-09-30T12:49:01;100860.94;;;19.94;71.35
42297;BME280;72430;47.456;19.016;2023-09-30T12:52:04;100855.50;;;20.24;70.68
42297;BME280;72430;47.456;19.016;2023-09-30T12:55:06;100863.50;;;20.26;70.54
42297;BME280;72430;47.456;19.016;2023-09-30T12:58:08;100864.44;;;20.33;69.29
42297;BME280;72430;47.456;19.016;2023-09-30T13:01:10;100867.34;;;20.32;71.18
42297;BME280;72430;47.456;19.016;2023-09-30T13:04:23;100860.13;;;20.24;70.89
42297;BME280;72430;47.456;19.016;2023-09-30T13:07:27;100854.06;;;20.44;69.70
42297;BME280;72430;47.456;19.016;2023-09-30T13:10:28;100860.03;;;20.69;70.00
42297;BME280;72430;47.456;19.016;2023-09-30T13:13:32;100850.88;;;20.40;70.38
42297;BME280;72430;47.456;19.016;2023-09-30T13:16:35;100837.75;;;20.72;69.20
42297;BME280;72430;47.456;19.016;2023-09-30T13:19:36;100846.41;;;20.91;67.81
42297;BME280;72430;47.456;19.016;2023-09-30T13:22:38;100839.50;;;21.17;66.80
42297;BME280;72430;47.456;19.016;2023-09-30T13:25:40;100835.00;;;21.31;66.57
42297;BME280;72430;47.456;19.016;2023-09-30T13:28:42;100837.59;;;22.03;64.74
42297;BME280;72430;47.456;19.016;2023-09-30T13:31:44;100826.72;;;23.87;58.91
42297;BME280;72430;47.456;19.016;2023-09-30T13:34:46;100835.19;;;23.99;54.42
42297;BME280;72430;47.456;19.016;2023-09-30T13:37:50;100833.72;;;24.56;53.76
42297;BME280;72430;47.456;19.016;2023-09-30T13:40:51;100833.06;;;24.15;54.37
42297;BME280;72430;47.456;19.016;2023-09-30T13:43:53;100822.28;;;24.59;52.38
42297;BME280;72430;47.456;19.016;2023-09-30T13:46:56;100819.19;;;25.82;49.41
42297;BME280;72430;47.456;19.016;2023-09-30T13:50:00;100803.84;;;29.50;40.99
42297;BME280;72430;47.456;19.016;2023-09-30T13:53:02;100807.25;;;29.97;39.79
42297;BME280;72430;47.456;19.016;2023-09-30T13:56:06;100810.53;;;29.03;41.41
42297;BME280;72430;47.456;19.016;2023-09-30T13:59:08;100817.44;;;27.29;44.47
42297;BME280;72430;47.456;19.016;2023-09-30T14:02:12;100819.00;;;26.83;45.95
42297;BME280;72430;47.456;19.016;2023-09-30T14:05:14;100819.13;;;26.08;47.94
42297;BME280;72430;47.456;19.016;2023-09-30T14:08:16;100814.81;;;25.56;50.52
42297;BME280;72430;47.456;19.016;2023-09-30T14:11:18;100813.66;;;24.87;50.83
42297;BME280;72430;47.456;19.016;2023-09-30T14:14:21;100801.19;;;24.39;52.52
42297;BME280;72430;47.456;19.016;2023-09-30T14:17:23;100799.38;;;24.65;53.44
42297;BME280;72430;47.456;19.016;2023-09-30T14:20:25;100791.91;;;24.72;52.38
42297;BME280;72430;47.456;19.016;2023-09-30T14:23:27;100802.75;;;24.21;53.95
42297;BME280;72430;47.456;19.016;2023-09-30T14:26:30;100807.28;;;23.95;55.20
42297;BME280;72430;47.456;19.016;2023-09-30T14:29:32;100799.06;;;25.38;52.79
42297;BME280;72430;47.456;19.016;2023-09-30T14:32:34;100794.38;;;26.20;51.29
42297;BME280;72430;47.456;19.016;2023-09-30T14:35:36;100790.75;;;27.35;48.80
42297;BME280;72430;47.456;19.016;2023-09-30T14:38:37;100781.38;;;28.37;45.04
42297;BME280;72430;47.456;19.016;2023-09-30T14:41:39;100782.84;;;28.74;45.29
42297;BME280;72430;47.456;19.016;2023-09-30T14:44:41;100779.88;;;28.92;44.33
42297;BME280;72430;47.456;19.016;2023-09-30T14:47:44;100777.53;;;28.55;44.72
42297;BME280;72430;47.456;19.016;2023-09-30T14:50:50;100772.34;;;28.59;43.80
42297;BME280;72430;47.456;19.016;2023-09-30T14:53:52;100777.84;;;28.00;44.73
42297;BME280;72430;47.456;19.016;2023-09-30T14:56:54;100777.06;;;27.52;45.02
42297;BME280;72430;47.456;19.016;2023-09-30T14:59:59;100773.81;;;26.77;46.32
42297;BME280;72430;47.456;19.016;2023-09-30T15:03:01;100782.75;;;26.48;49.26
42297;BME280;72430;47.456;19.016;2023-09-30T15:06:06;100787.00;;;25.76;49.02
42297;BME280;72430;47.456;19.016;2023-09-30T15:09:08;100791.91;;;25.93;49.56
42297;BME280;72430;47.456;19.016;2023-09-30T15:12:13;100783.38;;;25.13;55.22
42297;BME280;72430;47.456;19.016;2023-09-30T15:15:15;100789.75;;;24.81;55.03
42297;BME280;72430;47.456;19.016;2023-09-30T15:18:17;100790.63;;;24.36;55.62
42297;BME280;72430;47.456;19.016;2023-09-30T15:21:19;100791.38;;;24.04;54.76
42297;BME280;72430;47.456;19.016;2023-09-30T15:24:21;100799.09;;;23.68;59.11
42297;BME280;72430;47.456;19.016;2023-09-30T15:27:23;100788.91;;;23.82;57.87
42297;BME280;72430;47.456;19.016;2023-09-30T15:30:26;100795.13;;;23.44;57.77
42297;BME280;72430;47.456;19.016;2023-09-30T15:33:28;100798.66;;;23.65;56.27
42297;BME280;72430;47.456;19.016;2023-09-30T15:36:31;100791.72;;;23.15;60.87
42297;BME280;72430;47.456;19.016;2023-09-30T15:39:38;100788.31;;;22.92;61.12
42297;BME280;72430;47.456;19.016;2023-09-30T15:42:40;100789.34;;;22.58;65.31
42297;BME280;72430;47.456;19.016;2023-09-30T15:45:42;100782.09;;;22.50;63.55
42297;BME280;72430;47.456;19.016;2023-09-30T15:48:44;100794.06;;;22.29;65.04
42297;BME280;72430;47.456;19.016;2023-09-30T15:51:46;100789.47;;;22.43;63.62
42297;BME280;72430;47.456;19.016;2023-09-30T15:54:48;100795.94;;;21.79;65.01
42297;BME280;72430;47.456;19.016;2023-09-30T15:57:52;100786.56;;;21.95;67.23
42297;BME280;72430;47.456;19.016;2023-09-30T16:00:54;100799.97;;;21.83;66.38